sensor_id;sensor_type;location;lat;lon;timestamp;temperature;humidity
14723;DHT22;7452;55.594;12.986;2023-03-14T00:01:12;8.50;99.90
14723;DHT22;7452;55.594;12.986;2023-03-14T00:03:39;8.60;99.90
14723;DHT22;7452;55.594;12.986;2023-03-14T00:06:07;8.60;99.90
14723;DHT22;7452;55.594;12.986;2023-03-14T00:08:35;8.60;99.90
14723;DHT22;7452;55.594;12.986;2023-03-14T00:11:06;8.70;99.90
14723;DHT22;7452;55.594;12.986;2023-03-14T00:13:35;8.60;99.90
14723;DHT22;7452;55.594;12.986;2023-03-14T00:16:03;8.60;99.90
14723;DHT22;7452;55.594;12.986;2023-03-14T00:18:30;8.50;99.90
14723;DHT22;7452;55.594;12.986;2023-03-14T00:20:58;8.50;99.90
14723;DHT22;7452;55.594;12.986;2023-03-14T00:23:26;8.30;99.90
14723;DHT22;7452;55.594;12.986;2023-03-14T00:25:53;8.50;99.90
14723;DHT22;7452;55.594;12.986;2023-03-14T00:28:20;8.50;99.90
14723;DHT22;7452;55.594;12.986;2023-03-14T00:30:48;8.50;99.90
14723;DHT22;7452;55.594;12.986;2023-03-14T00:33:15;8.50;99.90
14723;DHT22;7452;55.594;12.986;2023-03-14T00:35:42;8.40;99.90
14723;DHT22;7452;55.594;12.986;2023-03-14T00:38:09;8.40;99.90
14723;DHT22;7452;55.594;12.986;2023-03-14T00:40:39;8.30;99.90
14723;DHT22;7452;55.594;12.986;2023-03-14T00:43:06;8.30;99.90
14723;DHT22;7452;55.594;12.986;2023-03-14T00:45:33;8.10;99.90
14723;DHT22;7452;55.594;12.986;2023-03-14T00:48:02;8.10;99.90
14723;DHT22;7452;55.594;12.986;2023-03-14T00:50:28;8.10;99.90
14723;DHT22;7452;55.594;12.986;2023-03-14T00:52:55;7.90;99.90
14723;DHT22;7452;55.594;12.986;2023-03-14T00:55:22;8.00;99.90
14723;DHT22;7452;55.594;12.986;2023-03-14T00:57:49;7.90;99.90
14723;DHT22;7452;55.594;12.986;2023-03-14T01:00:17;7.80;99.90
14723;DHT22;7452;55.594;12.986;2023-03-14T01:02:44;7.70;99.90
14723;DHT22;7452;55.594;12.986;2023-03-14T01:05:12;7.60;99.90
14723;DHT22;7452;55.594;12.986;2023-03-14T01:07:39;7.50;99.90
14723;DHT22;7452;55.594;12.986;2023-03-14T01:10:07;7.50;99.90
14723;DHT22;7452;55.594;12.986;2023-03-14T01:12:34;7.40;99.90
14723;DHT22;7452;55.594;12.986;2023-03-14T01:15:01;7.50;99.90
14723;DHT22;7452;55.594;12.986;2023-03-14T01:17:28;7.50;99.90
14723;DHT22;7452;55.594;12.986;2023-03-14T01:19:55;7.50;99.90
14723;DHT22;7452;55.594;12.986;2023-03-14T01:22:23;7.50;99.90
14723;DHT22;7452;55.594;12.986;2023-03-14T01:24:50;7.50;99.90
14723;DHT22;7452;55.594;12.986;2023-03-14T01:27:19;7.40;99.90
14723;DHT22;7452;55.594;12.986;2023-03-14T01:29:46;7.40;99.90
14723;DHT22;7452;55.594;12.986;2023-03-14T01:32:13;7.50;99.90
14723;DHT22;7452;55.594;12.986;2023-03-14T01:34:40;7.50;99.90
14723;DHT22;7452;55.594;12.986;2023-03-14T01:37:07;7.50;99.90
14723;DHT22;7452;55.594;12.986;2023-03-14T01:39:35;7.60;99.90
14723;DHT22;7452;55.594;12.986;2023-03-14T01:42:03;7.70;99.90
14723;DHT22;7452;55.594;12.986;2023-03-14T01:44:51;7.70;99.90
14723;DHT22;7452;55.594;12.986;2023-03-14T01:47:18;7.70;99.90
14723;DHT22;7452;55.594;12.986;2023-03-14T01:49:47;7.70;99.90
14723;DHT22;7452;55.594;12.986;2023-03-14T01:52:18;7.50;99.90
14723;DHT22;7452;55.594;12.986;2023-03-14T01:54:51;7.50;99.90
14723;DHT22;7452;55.594;12.986;2023-03-14T01:57:22;7.50;99.90
14723;DHT22;7452;55.594;12.986;2023-03-14T01:59:52;7.50;99.90
14723;DHT22;7452;55.594;12.986;2023-03-14T02:02:20;7.60;99.90
14723;DHT22;7452;55.594;12.986;2023-03-14T02:04:48;7.60;99.90
14723;DHT22;7452;55.594;12.986;2023-03-14T02:07:17;7.70;99.90
14723;DHT22;7452;55.594;12.986;2023-03-14T02:09:48;7.70;99.90
14723;DHT22;7452;55.594;12.986;2023-03-14T02:12:16;7.70;99.90
14723;DHT22;7452;55.594;12.986;2023-03-14T02:14:44;7.70;99.90
14723;DHT22;7452;55.594;12.986;2023-03-14T02:17:14;7.80;99.90
14723;DHT22;7452;55.594;12.986;2023-03-14T02:19:56;7.70;99.90
14723;DHT22;7452;55.594;12.986;2023-03-14T02:22:24;7.70;99.90
14723;DHT22;7452;55.594;12.986;2023-03-14T02:24:58;7.80;99.90
14723;DHT22;7452;55.594;12.986;2023-03-14T02:27:30;7.70;99.90
14723;DHT22;7452;55.594;12.986;2023-03-14T02:29:59;7.70;99.90
14723;DHT22;7452;55.594;12.986;2023-03-14T02:32:29;7.60;99.90
14723;DHT22;7452;55.594;12.986;2023-03-14T02:34:58;7.60;99.90
14723;DHT22;7452;55.594;12.986;2023-03-14T02:37:30;7.60;99.90
14723;DHT22;7452;55.594;12.986;2023-03-14T02:40:00;7.60;99.90
14723;DHT22;7452;55.594;12.986;2023-03-14T02:42:26;7.60;99.90
14723;DHT22;7452;55.594;12.986;2023-03-14T02:44:59;7.60;99.90
14723;DHT22;7452;55.594;12.986;2023-03-14T02:47:29;7.70;99.90
14723;DHT22;7452;55.594;12.986;2023-03-14T02:50:00;7.70;99.90
14723;DHT22;7452;55.594;12.986;2023-03-14T02:52:28;7.70;99.90
14723;DHT22;7452;55.594;12.986;2023-03-14T02:54:55;7.70;99.90
14723;DHT22;7452;55.594;12.986;2023-03-14T02:57:22;7.70;99.90
14723;DHT22;7452;55.594;12.986;2023-03-14T02:59:49;7.70;99.90
14723;DHT22;7452;55.594;12.986;2023-03-14T03:02:17;7.70;99.90
14723;DHT22;7452;55.594;12.986;2023-03-14T03:04:44;7.70;99.90
14723;DHT22;7452;55.594;12.986;2023-03-14T03:07:11;7.70;99.90
14723;DHT22;7452;55.594;12.986;2023-03-14T03:09:38;7.80;99.90
14723;DHT22;7452;55.594;12.986;2023-03-14T03:12:05;7.70;99.90
14723;DHT22;7452;55.594;12.986;2023-03-14T03:14:32;7.70;99.90
14723;DHT22;7452;55.594;12.986;2023-03-14T03:16:59;7.80;99.90
14723;DHT22;7452;55.594;12.986;2023-03-14T03:19:27;7.80;99.90
14723;DHT22;7452;55.594;12.986;2023-03-14T03:21:54;7.80;99.90
14723;DHT22;7452;55.594;12.986;2023-03-14T03:24:21;7.80;99.90
14723;DHT22;7452;55.594;12.986;2023-03-14T03:26:48;7.70;99.90
14723;DHT22;7452;55.594;12.986;2023-03-14T03:29:15;7.70;99.90
14723;DHT22;7452;55.594;12.986;2023-03-14T03:31:42;7.80;99.90
14723;DHT22;7452;55.594;12.986;2023-03-14T03:34:10;7.70;99.90
14723;DHT22;7452;55.594;12.986;2023-03-14T03:36:39;7.70;99.90
14723;DHT22;7452;55.594;12.986;2023-03-14T03:39:06;7.70;99.90
14723;DHT22;7452;55.594;12.986;2023-03-14T03:41:33;7.80;99.90
14723;DHT22;7452;55.594;12.986;2023-03-14T03:44:00;7.80;99.90
14723;DHT22;7452;55.594;12.986;2023-03-14T03:46:27;7.80;99.90
14723;DHT22;7452;55.594;12.986;2023-03-14T03:48:55;7.80;99.90
14723;DHT22;7452;55.594;12.986;2023-03-14T03:51:21;7.80;99.90
14723;DHT22;7452;55.594;12.986;2023-03-14T03:53:50;7.80;99.90
14723;DHT22;7452;55.594;12.986;2023-03-14T03:56:17;7.80;99.90
14723;DHT22;7452;55.594;12.986;2023-03-14T03:58:44;7.70;99.90
14723;DHT22;7452;55.594;12.986;2023-03-14T04:01:11;7.70;99.90
14723;DHT22;7452;55.594;12.986;2023-03-14T04:03:38;7.70;99.90
14723;DHT22;7452;55.594;12.986;2023-03-14T04:06:07;7.70;99.90
14723;DHT22;7452;55.594;12.986;2023-03-14T04:08:34;7.60;99.90
14723;DHT22;7452;55.594;12.986;2023-03-14T04:11:05;7.60;99.90
14723;DHT22;7452;55.594;12.986;2023-03-14T04:13:32;7.60;99.90
14723;DHT22;7452;55.594;12.986;2023-03-14T04:15:59;7.50;99.90
14723;DHT22;7452;55.594;12.986;2023-03-14T04:18:26;7.50;99.90
14723;DHT22;7452;55.594;12.986;2023-03-14T04:20:53;7.50;99.90
14723;DHT22;7452;55.594;12.986;2023-03-14T04:23:21;7.50;99.90
14723;DHT22;7452;55.594;12.986;2023-03-14T04:25:55;7.50;99.90
14723;DHT22;7452;55.594;12.986;2023-03-14T04:28:23;7.60;99.90
14723;DHT22;7452;55.594;12.986;2023-03-14T04:30:51;7.60;99.90
14723;DHT22;7452;55.594;12.986;2023-03-14T04:33:17;7.50;99.90
14723;DHT22;7452;55.594;12.986;2023-03-14T04:35:45;7.50;99.90
14723;DHT22;7452;55.594;12.986;2023-03-14T04:38:13;7.60;99.90
14723;DHT22;7452;55.594;12.986;2023-03-14T04:40:41;7.60;99.90
14723;DHT22;7452;55.594;12.986;2023-03-14T04:43:08;7.70;99.90
14723;DHT22;7452;55.594;12.986;2023-03-14T04:45:41;7.70;99.90
14723;DHT22;7452;55.594;12.986;2023-03-14T04:48:08;7.90;99.90
14723;DHT22;7452;55.594;12.986;2023-03-14T04:50:35;7.90;99.90
14723;DHT22;7452;55.594;12.986;2023-03-14T04:53:02;7.90;99.90
14723;DHT22;7452;55.594;12.986;2023-03-14T04:55:29;8.00;99.90
14723;DHT22;7452;55.594;12.986;2023-03-14T04:57:55;8.00;99.90
14723;DHT22;7452;55.594;12.986;2023-03-14T05:00:23;8.00;99.90
14723;DHT22;7452;55.594;12.986;2023-03-14T05:02:51;8.00;99.90
14723;DHT22;7452;55.594;12.986;2023-03-14T05:05:19;8.00;99.90
14723;DHT22;7452;55.594;12.986;2023-03-14T05:07:46;8.00;99.90
14723;DHT22;7452;55.594;12.986;2023-03-14T05:10:13;8.00;99.90
14723;DHT22;7452;55.594;12.986;2023-03-14T05:12:40;8.00;99.90
14723;DHT22;7452;55.594;12.986;2023-03-14T05:15:08;7.90;99.90
14723;DHT22;7452;55.594;12.986;2023-03-14T05:17:35;7.80;99.90
14723;DHT22;7452;55.594;12.986;2023-03-14T05:20:05;7.70;99.90
14723;DHT22;7452;55.594;12.986;2023-03-14T05:22:34;7.60;99.90
14723;DHT22;7452;55.594;12.986;2023-03-14T05:25:01;7.60;99.90
14723;DHT22;7452;55.594;12.986;2023-03-14T05:27:28;7.50;99.90
14723;DHT22;7452;55.594;12.986;2023-03-14T05:29:55;7.50;99.90
14723;DHT22;7452;55.594;12.986;2023-03-14T05:32:22;7.50;99.90
14723;DHT22;7452;55.594;12.986;2023-03-14T05:34:51;7.60;99.90
14723;DHT22;7452;55.594;12.986;2023-03-14T05:37:19;7.60;99.90
14723;DHT22;7452;55.594;12.986;2023-03-14T05:39:46;7.50;99.90
14723;DHT22;7452;55.594;12.986;2023-03-14T05:42:13;7.60;99.90
14723;DHT22;7452;55.594;12.986;2023-03-14T05:44:40;7.60;99.90
14723;DHT22;7452;55.594;12.986;2023-03-14T05:47:07;7.70;99.90
14723;DHT22;7452;55.594;12.986;2023-03-14T05:49:34;7.70;99.90
14723;DHT22;7452;55.594;12.986;2023-03-14T05:52:01;7.70;99.90
14723;DHT22;7452;55.594;12.986;2023-03-14T05:54:29;7.70;99.90
14723;DHT22;7452;55.594;12.986;2023-03-14T05:56:56;7.70;99.90
14723;DHT22;7452;55.594;12.986;2023-03-14T05:59:23;7.60;99.90
14723;DHT22;7452;55.594;12.986;2023-03-14T06:01:50;7.70;99.90
14723;DHT22;7452;55.594;12.986;2023-03-14T06:04:17;7.60;99.90
14723;DHT22;7452;55.594;12.986;2023-03-14T06:06:46;7.60;99.90
14723;DHT22;7452;55.594;12.986;2023-03-14T06:09:13;7.60;99.90
14723;DHT22;7452;55.594;12.986;2023-03-14T06:11:41;7.70;99.90
14723;DHT22;7452;55.594;12.986;2023-03-14T06:14:08;7.60;99.90
14723;DHT22;7452;55.594;12.986;2023-03-14T06:16:35;7.70;99.90
14723;DHT22;7452;55.594;12.986;2023-03-14T06:19:02;7.70;99.90
14723;DHT22;7452;55.594;12.986;2023-03-14T06:21:32;7.70;99.90
14723;DHT22;7452;55.594;12.986;2023-03-14T06:23:58;7.70;99.90
14723;DHT22;7452;55.594;12.986;2023-03-14T06:26:33;7.80;99.90
14723;DHT22;7452;55.594;12.986;2023-03-14T06:29:01;7.80;99.90
14723;DHT22;7452;55.594;12.986;2023-03-14T06:31:29;7.80;99.90
14723;DHT22;7452;55.594;12.986;2023-03-14T06:33:56;7.80;99.90
14723;DHT22;7452;55.594;12.986;2023-03-14T06:36:23;7.80;99.90
14723;DHT22;7452;55.594;12.986;2023-03-14T06:38:50;8.00;99.90
14723;DHT22;7452;55.594;12.986;2023-03-14T06:41:17;7.90;99.90
14723;DHT22;7452;55.594;12.986;2023-03-14T06:43:43;7.80;99.90
14723;DHT22;7452;55.594;12.986;2023-03-14T06:46:12;7.80;99.90
14723;DHT22;7452;55.594;12.986;2023-03-14T06:48:39;7.80;99.90
14723;DHT22;7452;55.594;12.986;2023-03-14T06:51:06;7.80;99.90
14723;DHT22;7452;55.594;12.986;2023-03-14T06:53:33;7.80;99.90
14723;DHT22;7452;55.594;12.986;2023-03-14T06:56:00;7.80;99.90
14723;DHT22;7452;55.594;12.986;2023-03-14T06:58:27;7.80;99.90
14723;DHT22;7452;55.594;12.986;2023-03-14T07:00:54;7.80;99.90
14723;DHT22;7452;55.594;12.986;2023-03-14T07:03:23;7.80;99.90
14723;DHT22;7452;55.594;12.986;2023-03-14T07:05:50;7.80;99.90
14723;DHT22;7452;55.594;12.986;2023-03-14T07:08:17;7.80;99.90
14723;DHT22;7452;55.594;12.986;2023-03-14T07:10:44;7.80;99.90
14723;DHT22;7452;55.594;12.986;2023-03-14T07:13:11;7.90;99.90
14723;DHT22;7452;55.594;12.986;2023-03-14T07:15:38;7.90;99.90
14723;DHT22;7452;55.594;12.986;2023-03-14T07:18:05;8.00;99.90
14723;DHT22;7452;55.594;12.986;2023-03-14T07:20:34;8.00;99.90
14723;DHT22;7452;55.594;12.986;2023-03-14T07:23:01;8.00;99.90
14723;DHT22;7452;55.594;12.986;2023-03-14T07:25:28;8.10;99.90
14723;DHT22;7452;55.594;12.986;2023-03-14T07:27:56;8.20;99.90
14723;DHT22;7452;55.594;12.986;2023-03-14T07:30:22;8.30;99.90
14723;DHT22;7452;55.594;12.986;2023-03-14T07:32:49;8.40;99.90
14723;DHT22;7452;55.594;12.986;2023-03-14T07:35:16;8.40;99.90
14723;DHT22;7452;55.594;12.986;2023-03-14T07:37:44;8.50;99.90
14723;DHT22;7452;55.594;12.986;2023-03-14T07:40:12;8.50;99.90
14723;DHT22;7452;55.594;12.986;2023-03-14T07:42:41;8.50;99.90
14723;DHT22;7452;55.594;12.986;2023-03-14T07:45:09;8.50;99.90
14723;DHT22;7452;55.594;12.986;2023-03-14T07:47:36;8.50;99.90
14723;DHT22;7452;55.594;12.986;2023-03-14T07:50:04;8.50;99.90
14723;DHT22;7452;55.594;12.986;2023-03-14T07:52:31;8.50;99.90
14723;DHT22;7452;55.594;12.986;2023-03-14T07:54:59;8.40;99.90
14723;DHT22;7452;55.594;12.986;2023-03-14T07:57:26;8.30;99.90
14723;DHT22;7452;55.594;12.986;2023-03-14T07:59:53;8.30;99.90
14723;DHT22;7452;55.594;12.986;2023-03-14T08:02:20;8.30;99.90
14723;DHT22;7452;55.594;12.986;2023-03-14T08:04:49;8.40;99.90
14723;DHT22;7452;55.594;12.986;2023-03-14T08:07:16;8.40;99.90
14723;DHT22;7452;55.594;12.986;2023-03-14T08:09:43;8.40;99.90
14723;DHT22;7452;55.594;12.986;2023-03-14T08:12:12;8.50;99.90
14723;DHT22;7452;55.594;12.986;2023-03-14T08:14:39;8.50;99.90
14723;DHT22;7452;55.594;12.986;2023-03-14T08:17:06;8.50;99.90
14723;DHT22;7452;55.594;12.986;2023-03-14T08:19:33;8.60;99.90
14723;DHT22;7452;55.594;12.986;2023-03-14T08:22:00;8.70;99.90
14723;DHT22;7452;55.594;12.986;2023-03-14T08:24:28;8.70;99.90
14723;DHT22;7452;55.594;12.986;2023-03-14T08:26:54;8.80;99.90
14723;DHT22;7452;55.594;12.986;2023-03-14T08:29:23;8.80;99.90
14723;DHT22;7452;55.594;12.986;2023-03-14T08:31:50;8.70;99.90
14723;DHT22;7452;55.594;12.986;2023-03-14T08:34:17;8.60;99.90
14723;DHT22;7452;55.594;12.986;2023-03-14T08:36:45;8.70;99.90
14723;DHT22;7452;55.594;12.986;2023-03-14T08:39:11;8.70;99.90
14723;DHT22;7452;55.594;12.986;2023-03-14T08:41:39;8.80;99.90
14723;DHT22;7452;55.594;12.986;2023-03-14T08:44:08;8.70;99.90
14723;DHT22;7452;55.594;12.986;2023-03-14T08:46:36;8.70;99.90
14723;DHT22;7452;55.594;12.986;2023-03-14T08:49:04;8.70;99.90
14723;DHT22;7452;55.594;12.986;2023-03-14T08:51:30;8.70;99.90
14723;DHT22;7452;55.594;12.986;2023-03-14T08:53:57;8.80;99.90
14723;DHT22;7452;55.594;12.986;2023-03-14T08:56:24;8.80;99.90
14723;DHT22;7452;55.594;12.986;2023-03-14T08:58:51;8.90;99.90
14723;DHT22;7452;55.594;12.986;2023-03-14T09:01:18;8.90;99.90
14723;DHT22;7452;55.594;12.986;2023-03-14T09:03:47;9.00;99.90
14723;DHT22;7452;55.594;12.986;2023-03-14T09:06:14;8.90;99.90
14723;DHT22;7452;55.594;12.986;2023-03-14T09:08:43;8.90;99.90
14723;DHT22;7452;55.594;12.986;2023-03-14T09:11:10;8.80;99.90
14723;DHT22;7452;55.594;12.986;2023-03-14T09:13:37;8.80;99.90
14723;DHT22;7452;55.594;12.986;2023-03-14T09:16:05;8.80;99.90
14723;DHT22;7452;55.594;12.986;2023-03-14T09:18:32;8.80;99.90
14723;DHT22;7452;55.594;12.986;2023-03-14T09:21:03;8.90;99.90
14723;DHT22;7452;55.594;12.986;2023-03-14T09:23:30;8.80;99.90
14723;DHT22;7452;55.594;12.986;2023-03-14T09:25:59;8.80;99.90
14723;DHT22;7452;55.594;12.986;2023-03-14T09:28:27;8.70;99.90
14723;DHT22;7452;55.594;12.986;2023-03-14T09:30:54;8.70;99.90
14723;DHT22;7452;55.594;12.986;2023-03-14T09:33:21;8.60;99.90
14723;DHT22;7452;55.594;12.986;2023-03-14T09:35:48;8.50;99.90
14723;DHT22;7452;55.594;12.986;2023-03-14T09:38:16;8.40;99.90
14723;DHT22;7452;55.594;12.986;2023-03-14T09:40:43;8.30;99.90
14723;DHT22;7452;55.594;12.986;2023-03-14T09:43:11;8.30;99.90
14723;DHT22;7452;55.594;12.986;2023-03-14T09:45:41;8.30;99.90
14723;DHT22;7452;55.594;12.986;2023-03-14T09:48:14;8.20;99.90
14723;DHT22;7452;55.594;12.986;2023-03-14T09:50:43;8.00;99.90
14723;DHT22;7452;55.594;12.986;2023-03-14T09:53:14;7.70;99.90
14723;DHT22;7452;55.594;12.986;2023-03-14T09:55:45;7.50;99.90
14723;DHT22;7452;55.594;12.986;2023-03-14T09:58:16;7.30;99.90
14723;DHT22;7452;55.594;12.986;2023-03-14T10:00:44;7.00;99.90
14723;DHT22;7452;55.594;12.986;2023-03-14T10:03:22;6.70;99.90
14723;DHT22;7452;55.594;12.986;2023-03-14T10:05:51;6.50;99.90
14723;DHT22;7452;55.594;12.986;2023-03-14T10:08:18;6.30;99.90
14723;DHT22;7452;55.594;12.986;2023-03-14T10:10:48;6.20;99.90
14723;DHT22;7452;55.594;12.986;2023-03-14T10:13:17;5.90;99.90
14723;DHT22;7452;55.594;12.986;2023-03-14T10:15:48;5.80;99.90
14723;DHT22;7452;55.594;12.986;2023-03-14T10:18:15;5.80;99.90
14723;DHT22;7452;55.594;12.986;2023-03-14T10:20:44;5.70;99.90
14723;DHT22;7452;55.594;12.986;2023-03-14T10:23:27;5.50;99.90
14723;DHT22;7452;55.594;12.986;2023-03-14T10:26:07;5.50;99.90
14723;DHT22;7452;55.594;12.986;2023-03-14T10:28:38;5.40;99.90
14723;DHT22;7452;55.594;12.986;2023-03-14T10:31:06;5.40;99.90
14723;DHT22;7452;55.594;12.986;2023-03-14T10:33:35;5.30;99.90
14723;DHT22;7452;55.594;12.986;2023-03-14T10:36:05;5.20;99.90
14723;DHT22;7452;55.594;12.986;2023-03-14T10:38:35;5.20;99.90
14723;DHT22;7452;55.594;12.986;2023-03-14T10:41:14;5.10;99.90
14723;DHT22;7452;55.594;12.986;2023-03-14T10:43:42;5.00;99.90
14723;DHT22;7452;55.594;12.986;2023-03-14T10:46:14;5.00;99.90
14723;DHT22;7452;55.594;12.986;2023-03-14T10:48:43;4.90;99.90
14723;DHT22;7452;55.594;12.986;2023-03-14T10:51:18;4.90;99.90
14723;DHT22;7452;55.594;12.986;2023-03-14T10:53:49;4.90;99.90
14723;DHT22;7452;55.594;12.986;2023-03-14T10:56:19;4.80;99.90
14723;DHT22;7452;55.594;12.986;2023-03-14T10:58:47;4.80;99.90
14723;DHT22;7452;55.594;12.986;2023-03-14T11:01:36;4.80;99.90
14723;DHT22;7452;55.594;12.986;2023-03-14T11:04:14;4.90;99.90
14723;DHT22;7452;55.594;12.986;2023-03-14T11:06:44;4.90;99.90
14723;DHT22;7452;55.594;12.986;2023-03-14T11:09:18;4.90;99.90
14723;DHT22;7452;55.594;12.986;2023-03-14T11:11:49;4.90;99.90
14723;DHT22;7452;55.594;12.986;2023-03-14T11:14:21;4.90;99.90
14723;DHT22;7452;55.594;12.986;2023-03-14T11:16:54;4.90;99.90
14723;DHT22;7452;55.594;12.986;2023-03-14T11:19:35;4.80;99.90
14723;DHT22;7452;55.594;12.986;2023-03-14T11:22:11;4.80;99.90
14723;DHT22;7452;55.594;12.986;2023-03-14T11:24:49;4.80;99.90
14723;DHT22;7452;55.594;12.986;2023-03-14T11:27:25;4.80;99.90
14723;DHT22;7452;55.594;12.986;2023-03-14T11:29:59;4.70;99.90
14723;DHT22;7452;55.594;12.986;2023-03-14T11:32:38;4.60;99.90
14723;DHT22;7452;55.594;12.986;2023-03-14T11:35:16;4.60;99.90
14723;DHT22;7452;55.594;12.986;2023-03-14T11:37:46;4.70;99.90
14723;DHT22;7452;55.594;12.986;2023-03-14T11:40:19;4.80;99.90
14723;DHT22;7452;55.594;12.986;2023-03-14T11:42:54;4.80;99.90
14723;DHT22;7452;55.594;12.986;2023-03-14T11:45:27;4.90;99.90
14723;DHT22;7452;55.594;12.986;2023-03-14T11:48:07;4.90;99.90
14723;DHT22;7452;55.594;12.986;2023-03-14T11:50:38;5.00;99.90
14723;DHT22;7452;55.594;12.986;2023-03-14T11:53:10;5.10;99.90
14723;DHT22;7452;55.594;12.986;2023-03-14T11:55:41;5.40;99.90
14723;DHT22;7452;55.594;12.986;2023-03-14T11:58:14;5.70;99.90
14723;DHT22;7452;55.594;12.986;2023-03-14T12:00:43;5.90;99.90
14723;DHT22;7452;55.594;12.986;2023-03-14T12:03:17;5.90;99.90
14723;DHT22;7452;55.594;12.986;2023-03-14T12:05:50;5.90;99.90
14723;DHT22;7452;55.594;12.986;2023-03-14T12:08:38;6.00;99.90
14723;DHT22;7452;55.594;12.986;2023-03-14T12:11:14;6.00;99.90
14723;DHT22;7452;55.594;12.986;2023-03-14T12:13:47;6.00;99.90
14723;DHT22;7452;55.594;12.986;2023-03-14T12:16:33;6.00;99.90
14723;DHT22;7452;55.594;12.986;2023-03-14T12:19:33;6.10;99.90
14723;DHT22;7452;55.594;12.986;2023-03-14T12:25:06;6.10;99.90
14723;DHT22;7452;55.594;12.986;2023-03-14T12:30:36;5.90;99.90
14723;DHT22;7452;55.594;12.986;2023-03-14T12:33:33;6.00;99.90
14723;DHT22;7452;55.594;12.986;2023-03-14T12:36:11;6.00;99.90
14723;DHT22;7452;55.594;12.986;2023-03-14T12:41:52;6.20;99.90
14723;DHT22;7452;55.594;12.986;2023-03-14T12:44:44;6.20;99.90
14723;DHT22;7452;55.594;12.986;2023-03-14T12:50:33;6.40;99.90
14723;DHT22;7452;55.594;12.986;2023-03-14T12:56:04;6.50;99.90
14723;DHT22;7452;55.594;12.986;2023-03-14T12:58:35;6.60;99.90
14723;DHT22;7452;55.594;12.986;2023-03-14T13:01:06;6.70;99.90
14723;DHT22;7452;55.594;12.986;2023-03-14T13:03:40;6.70;99.90
14723;DHT22;7452;55.594;12.986;2023-03-14T13:06:10;7.00;99.90
14723;DHT22;7452;55.594;12.986;2023-03-14T13:08:39;7.10;99.90
14723;DHT22;7452;55.594;12.986;2023-03-14T13:11:10;7.30;99.90
14723;DHT22;7452;55.594;12.986;2023-03-14T13:13:42;7.50;99.90
14723;DHT22;7452;55.594;12.986;2023-03-14T13:16:15;7.40;99.90
14723;DHT22;7452;55.594;12.986;2023-03-14T13:18:43;7.50;99.90
14723;DHT22;7452;55.594;12.986;2023-03-14T13:21:15;7.40;99.90
14723;DHT22;7452;55.594;12.986;2023-03-14T13:23:55;7.40;99.90
14723;DHT22;7452;55.594;12.986;2023-03-14T13:26:24;7.40;99.90
14723;DHT22;7452;55.594;12.986;2023-03-14T13:28:52;7.30;99.90
14723;DHT22;7452;55.594;12.986;2023-03-14T13:31:22;7.30;99.90
14723;DHT22;7452;55.594;12.986;2023-03-14T13:34:00;7.30;99.90
14723;DHT22;7452;55.594;12.986;2023-03-14T13:36:28;7.20;99.90
14723;DHT22;7452;55.594;12.986;2023-03-14T13:38:57;7.30;99.90
14723;DHT22;7452;55.594;12.986;2023-03-14T13:41:24;7.30;99.90
14723;DHT22;7452;55.594;12.986;2023-03-14T13:43:52;7.40;99.90
14723;DHT22;7452;55.594;12.986;2023-03-14T13:46:25;7.40;99.90
14723;DHT22;7452;55.594;12.986;2023-03-14T13:48:54;7.50;99.90
14723;DHT22;7452;55.594;12.986;2023-03-14T13:51:22;7.50;99.90
14723;DHT22;7452;55.594;12.986;2023-03-14T13:53:56;7.40;99.90
14723;DHT22;7452;55.594;12.986;2023-03-14T13:56:25;7.30;99.90
14723;DHT22;7452;55.594;12.986;2023-03-14T13:58:52;7.20;99.90
14723;DHT22;7452;55.594;12.986;2023-03-14T14:01:21;7.10;99.90
14723;DHT22;7452;55.594;12.986;2023-03-14T14:03:51;7.10;99.90
14723;DHT22;7452;55.594;12.986;2023-03-14T14:06:30;7.10;99.90
14723;DHT22;7452;55.594;12.986;2023-03-14T14:09:02;7.10;99.90
14723;DHT22;7452;55.594;12.986;2023-03-14T14:11:38;7.00;99.90
14723;DHT22;7452;55.594;12.986;2023-03-14T14:14:12;7.10;99.90
14723;DHT22;7452;55.594;12.986;2023-03-14T14:16:40;7.40;99.90
14723;DHT22;7452;55.594;12.986;2023-03-14T14:19:08;7.80;99.90
14723;DHT22;7452;55.594;12.986;2023-03-14T14:21:35;8.40;99.90
14723;DHT22;7452;55.594;12.986;2023-03-14T14:24:04;8.90;99.90
14723;DHT22;7452;55.594;12.986;2023-03-14T14:26:32;9.00;99.90
14723;DHT22;7452;55.594;12.986;2023-03-14T14:29:01;9.00;99.90
14723;DHT22;7452;55.594;12.986;2023-03-14T14:31:28;8.80;99.90
14723;DHT22;7452;55.594;12.986;2023-03-14T14:33:57;8.40;99.90
14723;DHT22;7452;55.594;12.986;2023-03-14T14:36:26;8.20;99.90
14723;DHT22;7452;55.594;12.986;2023-03-14T14:38:58;8.10;99.90
14723;DHT22;7452;55.594;12.986;2023-03-14T14:41:34;8.20;99.90
14723;DHT22;7452;55.594;12.986;2023-03-14T14:44:03;8.40;99.90
14723;DHT22;7452;55.594;12.986;2023-03-14T14:46:32;9.00;99.90
14723;DHT22;7452;55.594;12.986;2023-03-14T14:49:04;10.00;99.90
14723;DHT22;7452;55.594;12.986;2023-03-14T14:51:34;11.10;99.90
14723;DHT22;7452;55.594;12.986;2023-03-14T14:54:10;11.60;99.90
14723;DHT22;7452;55.594;12.986;2023-03-14T14:56:39;11.70;99.90
14723;DHT22;7452;55.594;12.986;2023-03-14T14:59:17;11.50;99.90
14723;DHT22;7452;55.594;12.986;2023-03-14T15:01:45;11.00;99.90
14723;DHT22;7452;55.594;12.986;2023-03-14T15:04:15;10.30;99.90
14723;DHT22;7452;55.594;12.986;2023-03-14T15:06:44;9.50;99.90
14723;DHT22;7452;55.594;12.986;2023-03-14T15:09:12;8.90;99.90
14723;DHT22;7452;55.594;12.986;2023-03-14T15:11:41;8.50;99.90
14723;DHT22;7452;55.594;12.986;2023-03-14T15:14:08;8.20;99.90
14723;DHT22;7452;55.594;12.986;2023-03-14T15:16:35;7.90;99.90
14723;DHT22;7452;55.594;12.986;2023-03-14T15:19:08;7.60;99.90
14723;DHT22;7452;55.594;12.986;2023-03-14T15:21:36;7.40;99.90
14723;DHT22;7452;55.594;12.986;2023-03-14T15:24:04;7.20;99.90
14723;DHT22;7452;55.594;12.986;2023-03-14T15:26:31;7.10;99.90
14723;DHT22;7452;55.594;12.986;2023-03-14T15:28:59;7.00;99.90
14723;DHT22;7452;55.594;12.986;2023-03-14T15:31:26;6.90;99.90
14723;DHT22;7452;55.594;12.986;2023-03-14T15:33:53;6.90;99.90
14723;DHT22;7452;55.594;12.986;2023-03-14T15:36:22;6.80;99.90
14723;DHT22;7452;55.594;12.986;2023-03-14T15:38:50;6.80;99.90
14723;DHT22;7452;55.594;12.986;2023-03-14T15:41:17;6.70;99.90
14723;DHT22;7452;55.594;12.986;2023-03-14T15:43:45;6.70;99.90
14723;DHT22;7452;55.594;12.986;2023-03-14T15:46:14;6.70;99.90
14723;DHT22;7452;55.594;12.986;2023-03-14T15:48:43;6.70;99.90
14723;DHT22;7452;55.594;12.986;2023-03-14T15:51:10;6.60;99.90
14723;DHT22;7452;55.594;12.986;2023-03-14T15:53:37;6.60;99.90
14723;DHT22;7452;55.594;12.986;2023-03-14T15:56:05;6.60;99.90
14723;DHT22;7452;55.594;12.986;2023-03-14T15:58:33;6.60;99.90
14723;DHT22;7452;55.594;12.986;2023-03-14T16:01:02;6.60;99.90
14723;DHT22;7452;55.594;12.986;2023-03-14T16:03:30;6.50;99.90
14723;DHT22;7452;55.594;12.986;2023-03-14T16:05:57;6.50;99.90
14723;DHT22;7452;55.594;12.986;2023-03-14T16:08:26;6.40;99.90
14723;DHT22;7452;55.594;12.986;2023-03-14T16:10:54;6.40;99.90
14723;DHT22;7452;55.594;12.986;2023-03-14T16:13:22;6.30;99.90